Hauptseite
METAR-TAF:

METAR-TAF

Flughäfen :

Militärflugplatz Nancy-Ochey

Nancy, Frankreich

Breite: 48-35N, Länge: 005-58E, Höhe: 336 m

Beobachtung

Neuester Wetterbericht von vor 25 Minuten, um 02:00 UTC
Wind 12 kt aus Ost/Nordost
Temperatur 3°C
Luftfeuchtigkeit 65%
Luftdruck 1023 hPa
Sichtweite 10 km oder mehr
keine Wolken unter 1500 m und keine Kumulonimbus oder Gewitterwolken

METAR: LFSO 180200Z AUTO 07012KT CAVOK 03/M03 Q1023

Zeit: 03:25 (02:25 UTC)

Prognose

Neuester Wetterbericht von vor 12 Stunden und 25 Minuten, um 14:00 UTC
Gültige Prognose vom 16 um 15 UTC bis 17 um 15 UTC
Wind 5 kt aus Nordost
Sichtweite 10 km oder mehr
keine Wolken unter 1500 m und keine Kumulonimbus oder Gewitterwolken
Zeitweise
vom 16 um 19 UTC bis 16 um 24 UTC
Wind 20 kt aus Ost
Zeitweise
vom 17 um 08 UTC bis 17 um 15 UTC
Wind 20 kt aus Ost

TAF: LFSO 161400Z 1615/1715 05005KT CAVOK TEMPO 1619/1624 08020KT TEMPO 1708/1715 08020KT

Wetterbeobachtungen und Prognosen von mehr als 4000 Flughäfen (METAR und TAF Bericht).

Die verfügbaren Stationen werden durch gelbe und rote Markierungen auf der Karte dargestellt.

Führen Sie die Maus auf sie, um den Namen der Station zu sehen.

Darauf klicken, um die Beobachtung von Wetterbeobachtungen und Prognosen zu sehen.

Um die Karte zu ändern : klicken Sie auf den grünen Tasten mit einem schwarzen Kreuz Zum Vergrößern, auf den grünen Button mit einem Gedankenstrich zu verkleinern, oder auf die grünen Pfeile für benachbarte Karten.


METAR-TAF: